sensor_id;sensor_type;location;lat;lon;timestamp;pressure;altitude;pressure_sealevel;temperature;humidity
4576;BME280;2300;51.874;8.430;2023-03-19T00:01:30;100373.31;;;8.77;100.00
4576;BME280;2300;51.874;8.430;2023-03-19T00:03:58;100366.66;;;8.73;100.00
4576;BME280;2300;51.874;8.430;2023-03-19T00:06:24;100363.53;;;8.69;100.00
4576;BME280;2300;51.874;8.430;2023-03-19T00:08:51;100371.75;;;8.69;100.00
4576;BME280;2300;51.874;8.430;2023-03-19T00:11:17;100368.81;;;8.64;100.00
4576;BME280;2300;51.874;8.430;2023-03-19T00:13:44;100367.78;;;8.65;100.00
4576;BME280;2300;51.874;8.430;2023-03-19T00:16:11;100359.63;;;8.59;100.00
4576;BME280;2300;51.874;8.430;2023-03-19T00:18:38;100364.09;;;8.53;100.00
4576;BME280;2300;51.874;8.430;2023-03-19T00:21:06;100366.06;;;8.46;100.00
4576;BME280;2300;51.874;8.430;2023-03-19T00:23:32;100366.84;;;8.53;100.00
4576;BME280;2300;51.874;8.430;2023-03-19T00:25:59;100368.94;;;8.51;100.00
4576;BME280;2300;51.874;8.430;2023-03-19T00:28:26;100366.97;;;8.40;100.00
4576;BME280;2300;51.874;8.430;2023-03-19T00:30:52;100365.63;;;8.49;100.00
4576;BME280;2300;51.874;8.430;2023-03-19T00:33:19;100375.31;;;8.45;100.00
4576;BME280;2300;51.874;8.430;2023-03-19T00:35:46;100367.72;;;8.29;100.00
4576;BME280;2300;51.874;8.430;2023-03-19T00:38:14;100370.22;;;8.30;100.00
4576;BME280;2300;51.874;8.430;2023-03-19T00:40:40;100372.53;;;8.34;100.00
4576;BME280;2300;51.874;8.430;2023-03-19T00:43:07;100376.19;;;8.21;100.00
4576;BME280;2300;51.874;8.430;2023-03-19T00:45:33;100365.56;;;8.13;100.00
4576;BME280;2300;51.874;8.430;2023-03-19T00:48:00;100370.56;;;8.16;100.00
4576;BME280;2300;51.874;8.430;2023-03-19T00:50:26;100373.31;;;8.16;100.00
4576;BME280;2300;51.874;8.430;2023-03-19T00:52:52;100343.19;;;7.98;100.00
4576;BME280;2300;51.874;8.430;2023-03-19T00:55:20;100371.91;;;8.07;100.00
4576;BME280;2300;51.874;8.430;2023-03-19T00:57:47;100382.69;;;8.02;100.00
4576;BME280;2300;51.874;8.430;2023-03-19T01:00:14;100340.03;;;7.69;100.00
4576;BME280;2300;51.874;8.430;2023-03-19T01:02:41;100375.38;;;7.96;100.00
4576;BME280;2300;51.874;8.430;2023-03-19T01:05:08;100379.78;;;7.97;100.00
4576;BME280;2300;51.874;8.430;2023-03-19T01:07:35;100384.63;;;7.95;100.00
4576;BME280;2300;51.874;8.430;2023-03-19T01:10:01;100379.53;;;7.73;100.00
4576;BME280;2300;51.874;8.430;2023-03-19T01:12:29;100374.69;;;7.75;100.00
4576;BME280;2300;51.874;8.430;2023-03-19T01:14:56;100377.25;;;7.70;100.00
4576;BME280;2300;51.874;8.430;2023-03-19T01:17:22;100383.16;;;7.67;100.00
4576;BME280;2300;51.874;8.430;2023-03-19T01:19:49;100364.81;;;7.43;100.00
4576;BME280;2300;51.874;8.430;2023-03-19T01:22:15;100390.19;;;7.57;100.00
4576;BME280;2300;51.874;8.430;2023-03-19T01:24:42;100357.69;;;7.42;100.00
4576;BME280;2300;51.874;8.430;2023-03-19T01:27:09;100379.28;;;7.50;100.00
4576;BME280;2300;51.874;8.430;2023-03-19T01:29:37;100370.63;;;7.53;100.00
4576;BME280;2300;51.874;8.430;2023-03-19T01:32:04;100372.41;;;7.41;100.00
4576;BME280;2300;51.874;8.430;2023-03-19T01:34:30;100371.16;;;7.37;100.00
4576;BME280;2300;51.874;8.430;2023-03-19T01:36:57;100371.34;;;7.42;100.00
4576;BME280;2300;51.874;8.430;2023-03-19T01:39:23;100374.41;;;7.52;100.00
4576;BME280;2300;51.874;8.430;2023-03-19T01:41:50;100376.44;;;7.63;100.00
4576;BME280;2300;51.874;8.430;2023-03-19T01:44:24;100376.44;;;7.63;100.00
4576;BME280;2300;51.874;8.430;2023-03-19T01:46:53;100363.59;;;7.70;100.00
4576;BME280;2300;51.874;8.430;2023-03-19T01:49:21;100375.13;;;7.72;100.00
4576;BME280;2300;51.874;8.430;2023-03-19T01:51:48;100370.91;;;7.76;100.00
4576;BME280;2300;51.874;8.430;2023-03-19T01:54:18;100376.94;;;7.85;100.00
4576;BME280;2300;51.874;8.430;2023-03-19T01:56:47;100368.72;;;7.85;100.00
4576;BME280;2300;51.874;8.430;2023-03-19T01:59:19;100374.56;;;7.88;100.00
4576;BME280;2300;51.874;8.430;2023-03-19T02:01:49;100371.13;;;8.00;100.00
4576;BME280;2300;51.874;8.430;2023-03-19T02:04:18;100376.94;;;8.10;100.00
4576;BME280;2300;51.874;8.430;2023-03-19T02:06:45;100377.66;;;8.23;100.00
4576;BME280;2300;51.874;8.430;2023-03-19T02:09:13;100375.47;;;8.32;100.00
4576;BME280;2300;51.874;8.430;2023-03-19T02:11:40;100371.34;;;8.23;100.00
4576;BME280;2300;51.874;8.430;2023-03-19T02:14:08;100385.63;;;8.25;100.00
4576;BME280;2300;51.874;8.430;2023-03-19T02:16:35;100377.16;;;8.33;100.00
4576;BME280;2300;51.874;8.430;2023-03-19T02:19:01;100373.19;;;8.29;100.00
4576;BME280;2300;51.874;8.430;2023-03-19T02:21:29;100382.22;;;8.29;100.00
4576;BME280;2300;51.874;8.430;2023-03-19T02:24:00;100375.25;;;8.34;100.00
4576;BME280;2300;51.874;8.430;2023-03-19T02:26:29;100377.66;;;8.23;100.00
4576;BME280;2300;51.874;8.430;2023-03-19T02:28:56;100375.16;;;8.22;100.00
4576;BME280;2300;51.874;8.430;2023-03-19T02:31:23;100378.03;;;8.27;100.00
4576;BME280;2300;51.874;8.430;2023-03-19T02:33:57;100375.25;;;8.09;100.00
4576;BME280;2300;51.874;8.430;2023-03-19T02:36:27;100375.66;;;8.12;100.00
4576;BME280;2300;51.874;8.430;2023-03-19T02:38:56;100383.28;;;8.04;100.00
4576;BME280;2300;51.874;8.430;2023-03-19T02:41:24;100379.22;;;8.13;100.00
4576;BME280;2300;51.874;8.430;2023-03-19T02:43:53;100381.34;;;8.11;100.00
4576;BME280;2300;51.874;8.430;2023-03-19T02:46:19;100390.34;;;8.18;100.00
4576;BME280;2300;51.874;8.430;2023-03-19T02:48:46;100383.78;;;8.19;100.00
4576;BME280;2300;51.874;8.430;2023-03-19T02:51:12;100388.88;;;8.15;100.00
4576;BME280;2300;51.874;8.430;2023-03-19T02:53:39;100386.31;;;8.20;100.00
4576;BME280;2300;51.874;8.430;2023-03-19T02:56:06;100381.13;;;8.12;100.00
4576;BME280;2300;51.874;8.430;2023-03-19T02:58:32;100363.56;;;8.02;100.00
4576;BME280;2300;51.874;8.430;2023-03-19T03:01:00;100377.66;;;7.99;100.00
4576;BME280;2300;51.874;8.430;2023-03-19T03:03:27;100377.06;;;7.97;100.00
4576;BME280;2300;51.874;8.430;2023-03-19T03:05:54;100376.31;;;7.83;100.00
4576;BME280;2300;51.874;8.430;2023-03-19T03:08:20;100373.75;;;7.88;100.00
4576;BME280;2300;51.874;8.430;2023-03-19T03:10:47;100357.78;;;7.85;100.00
4576;BME280;2300;51.874;8.430;2023-03-19T03:13:13;100374.56;;;7.88;100.00
4576;BME280;2300;51.874;8.430;2023-03-19T03:15:40;100380.06;;;7.88;100.00
4576;BME280;2300;51.874;8.430;2023-03-19T03:18:08;100380.00;;;7.95;100.00
4576;BME280;2300;51.874;8.430;2023-03-19T03:20:35;100377.66;;;7.99;100.00
4576;BME280;2300;51.874;8.430;2023-03-19T03:23:01;100378.81;;;8.09;100.00
4576;BME280;2300;51.874;8.430;2023-03-19T03:25:28;100375.56;;;8.19;100.00
4576;BME280;2300;51.874;8.430;2023-03-19T03:27:55;100369.69;;;8.22;100.00
4576;BME280;2300;51.874;8.430;2023-03-19T03:30:21;100376.16;;;8.27;100.00
4576;BME280;2300;51.874;8.430;2023-03-19T03:32:47;100377.66;;;8.23;100.00
4576;BME280;2300;51.874;8.430;2023-03-19T03:35:15;100376.88;;;8.16;100.00
4576;BME280;2300;51.874;8.430;2023-03-19T03:37:46;100378.31;;;8.19;100.00
4576;BME280;2300;51.874;8.430;2023-03-19T03:40:13;100380.84;;;8.20;100.00
4576;BME280;2300;51.874;8.430;2023-03-19T03:42:40;100373.59;;;8.08;100.00
4576;BME280;2300;51.874;8.430;2023-03-19T03:45:08;100385.44;;;8.02;100.00
4576;BME280;2300;51.874;8.430;2023-03-19T03:47:35;100385.38;;;8.08;100.00
4576;BME280;2300;51.874;8.430;2023-03-19T03:50:01;100388.66;;;8.17;100.00
4576;BME280;2300;51.874;8.430;2023-03-19T03:52:31;100389.09;;;8.14;100.00
4576;BME280;2300;51.874;8.430;2023-03-19T03:54:58;100391.81;;;8.14;100.00
4576;BME280;2300;51.874;8.430;2023-03-19T03:57:25;100388.75;;;8.04;100.00
4576;BME280;2300;51.874;8.430;2023-03-19T03:59:52;100390.06;;;8.01;100.00
4576;BME280;2300;51.874;8.430;2023-03-19T04:02:19;100380.81;;;8.02;100.00
4576;BME280;2300;51.874;8.430;2023-03-19T04:04:45;100389.25;;;7.94;100.00
4576;BME280;2300;51.874;8.430;2023-03-19T04:07:13;100385.69;;;7.94;100.00
4576;BME280;2300;51.874;8.430;2023-03-19T04:09:40;100387.25;;;7.83;100.00
4576;BME280;2300;51.874;8.430;2023-03-19T04:12:07;100382.78;;;7.88;100.00
4576;BME280;2300;51.874;8.430;2023-03-19T04:14:34;100373.34;;;7.84;100.00
4576;BME280;2300;51.874;8.430;2023-03-19T04:17:00;100382.94;;;7.94;100.00
4576;BME280;2300;51.874;8.430;2023-03-19T04:19:27;100378.78;;;7.91;100.00
4576;BME280;2300;51.874;8.430;2023-03-19T04:21:53;100376.56;;;7.81;100.00
4576;BME280;2300;51.874;8.430;2023-03-19T04:24:20;100366.84;;;7.85;100.00
4576;BME280;2300;51.874;8.430;2023-03-19T04:26:48;100371.25;;;7.86;100.00
4576;BME280;2300;51.874;8.430;2023-03-19T04:29:14;100376.72;;;7.86;100.00
4576;BME280;2300;51.874;8.430;2023-03-19T04:31:42;100383.88;;;7.87;100.00
4576;BME280;2300;51.874;8.430;2023-03-19T04:34:09;100382.34;;;7.92;100.00
4576;BME280;2300;51.874;8.430;2023-03-19T04:36:36;100378.09;;;7.96;100.00
4576;BME280;2300;51.874;8.430;2023-03-19T04:39:03;100375.84;;;7.93;100.00
4576;BME280;2300;51.874;8.430;2023-03-19T04:41:30;100375.09;;;8.04;100.00
4576;BME280;2300;51.874;8.430;2023-03-19T04:43:58;100363.81;;;7.94;100.00
4576;BME280;2300;51.874;8.430;2023-03-19T04:46:25;100379.13;;;8.01;100.00
4576;BME280;2300;51.874;8.430;2023-03-19T04:48:51;100370.75;;;7.96;100.00
4576;BME280;2300;51.874;8.430;2023-03-19T04:51:18;100367.28;;;7.82;100.00
4576;BME280;2300;51.874;8.430;2023-03-19T04:53:45;100377.97;;;7.84;100.00
4576;BME280;2300;51.874;8.430;2023-03-19T04:56:12;100380.50;;;7.85;100.00
4576;BME280;2300;51.874;8.430;2023-03-19T04:58:40;100390.38;;;7.86;100.00
4576;BME280;2300;51.874;8.430;2023-03-19T05:01:08;100392.31;;;7.79;100.00
4576;BME280;2300;51.874;8.430;2023-03-19T05:03:34;100389.81;;;7.78;100.00
4576;BME280;2300;51.874;8.430;2023-03-19T05:06:01;100377.44;;;7.75;100.00
4576;BME280;2300;51.874;8.430;2023-03-19T05:08:28;100395.69;;;7.81;100.00
4576;BME280;2300;51.874;8.430;2023-03-19T05:10:54;100393.53;;;7.83;99.73
4576;BME280;2300;51.874;8.430;2023-03-19T05:13:21;100390.03;;;7.76;99.57
4576;BME280;2300;51.874;8.430;2023-03-19T05:15:47;100399.84;;;7.84;99.75
4576;BME280;2300;51.874;8.430;2023-03-19T05:18:15;100386.84;;;7.79;98.80
4576;BME280;2300;51.874;8.430;2023-03-19T05:20:42;100392.78;;;7.76;99.18
4576;BME280;2300;51.874;8.430;2023-03-19T05:23:08;100384.47;;;7.58;98.69
4576;BME280;2300;51.874;8.430;2023-03-19T05:25:35;100370.75;;;7.40;98.81
4576;BME280;2300;51.874;8.430;2023-03-19T05:28:01;100392.53;;;7.46;98.94
4576;BME280;2300;51.874;8.430;2023-03-19T05:30:28;100391.53;;;7.41;98.76
4576;BME280;2300;51.874;8.430;2023-03-19T05:32:55;100390.69;;;7.40;99.39
4576;BME280;2300;51.874;8.430;2023-03-19T05:35:24;100394.31;;;7.34;99.83
4576;BME280;2300;51.874;8.430;2023-03-19T05:37:50;100403.38;;;7.28;100.00
4576;BME280;2300;51.874;8.430;2023-03-19T05:40:17;100359.41;;;6.92;100.00
4576;BME280;2300;51.874;8.430;2023-03-19T05:42:43;100410.91;;;7.26;100.00
4576;BME280;2300;51.874;8.430;2023-03-19T05:45:10;100407.78;;;7.29;100.00
4576;BME280;2300;51.874;8.430;2023-03-19T05:47:37;100417.47;;;7.25;100.00
4576;BME280;2300;51.874;8.430;2023-03-19T05:50:04;100429.66;;;7.23;100.00
4576;BME280;2300;51.874;8.430;2023-03-19T05:52:33;100430.31;;;7.12;100.00
4576;BME280;2300;51.874;8.430;2023-03-19T05:55:00;100428.63;;;7.11;100.00
4576;BME280;2300;51.874;8.430;2023-03-19T05:57:26;100433.06;;;7.05;100.00
4576;BME280;2300;51.874;8.430;2023-03-19T05:59:53;100428.63;;;7.11;100.00
4576;BME280;2300;51.874;8.430;2023-03-19T06:02:19;100419.41;;;7.12;100.00
4576;BME280;2300;51.874;8.430;2023-03-19T06:04:46;100430.50;;;7.17;100.00
4576;BME280;2300;51.874;8.430;2023-03-19T06:07:12;100432.19;;;7.18;100.00
4576;BME280;2300;51.874;8.430;2023-03-19T06:09:40;100433.44;;;7.22;100.00
4576;BME280;2300;51.874;8.430;2023-03-19T06:12:07;100433.63;;;7.27;100.00
4576;BME280;2300;51.874;8.430;2023-03-19T06:14:33;100434.44;;;7.34;100.00
4576;BME280;2300;51.874;8.430;2023-03-19T06:17:01;100441.97;;;7.38;100.00
4576;BME280;2300;51.874;8.430;2023-03-19T06:19:28;100449.72;;;7.41;100.00
4576;BME280;2300;51.874;8.430;2023-03-19T06:21:54;100445.81;;;7.62;100.00
4576;BME280;2300;51.874;8.430;2023-03-19T06:24:21;100450.78;;;7.78;100.00
4576;BME280;2300;51.874;8.430;2023-03-19T06:26:49;100452.41;;;7.93;100.00
4576;BME280;2300;51.874;8.430;2023-03-19T06:29:15;100450.34;;;8.13;100.00
4576;BME280;2300;51.874;8.430;2023-03-19T06:31:42;100435.50;;;8.27;99.89
4576;BME280;2300;51.874;8.430;2023-03-19T06:34:08;100452.34;;;8.49;100.00
4576;BME280;2300;51.874;8.430;2023-03-19T06:36:35;100452.00;;;8.63;98.90
4576;BME280;2300;51.874;8.430;2023-03-19T06:39:01;100452.03;;;8.82;98.44
4576;BME280;2300;51.874;8.430;2023-03-19T06:41:28;100454.72;;;8.70;98.13
4576;BME280;2300;51.874;8.430;2023-03-19T06:43:56;100463.78;;;8.89;98.33
4576;BME280;2300;51.874;8.430;2023-03-19T06:46:23;100466.81;;;8.99;96.90
4576;BME280;2300;51.874;8.430;2023-03-19T06:48:50;100463.47;;;9.15;96.89
4576;BME280;2300;51.874;8.430;2023-03-19T06:51:16;100448.50;;;8.99;95.97
4576;BME280;2300;51.874;8.430;2023-03-19T06:53:43;100467.16;;;9.27;96.22
4576;BME280;2300;51.874;8.430;2023-03-19T06:56:09;100470.94;;;9.26;95.87
4576;BME280;2300;51.874;8.430;2023-03-19T06:58:36;100472.78;;;9.32;95.21
4576;BME280;2300;51.874;8.430;2023-03-19T07:01:04;100477.31;;;9.56;95.38
4576;BME280;2300;51.874;8.430;2023-03-19T07:03:31;100483.56;;;9.64;94.84
4576;BME280;2300;51.874;8.430;2023-03-19T07:05:57;100485.03;;;9.78;94.47
4576;BME280;2300;51.874;8.430;2023-03-19T07:08:23;100484.41;;;9.76;93.95
4576;BME280;2300;51.874;8.430;2023-03-19T07:10:53;100489.03;;;9.93;93.52
4576;BME280;2300;51.874;8.430;2023-03-19T07:13:20;100483.47;;;10.00;92.47
4576;BME280;2300;51.874;8.430;2023-03-19T07:15:46;100486.34;;;10.05;93.30
4576;BME280;2300;51.874;8.430;2023-03-19T07:18:14;100497.44;;;10.22;93.32
4576;BME280;2300;51.874;8.430;2023-03-19T07:20:41;100501.09;;;10.34;92.88
4576;BME280;2300;51.874;8.430;2023-03-19T07:23:07;100501.97;;;10.58;92.83
4576;BME280;2300;51.874;8.430;2023-03-19T07:25:33;100506.91;;;10.67;93.11
4576;BME280;2300;51.874;8.430;2023-03-19T07:28:01;100496.41;;;10.88;92.45
4576;BME280;2300;51.874;8.430;2023-03-19T07:30:29;100506.91;;;11.02;91.70
4576;BME280;2300;51.874;8.430;2023-03-19T07:32:55;100505.44;;;11.11;90.80
4576;BME280;2300;51.874;8.430;2023-03-19T07:35:23;100507.19;;;11.41;91.56
4576;BME280;2300;51.874;8.430;2023-03-19T07:37:49;100512.91;;;11.51;90.97
4576;BME280;2300;51.874;8.430;2023-03-19T07:40:16;100502.38;;;11.59;90.51
4576;BME280;2300;51.874;8.430;2023-03-19T07:42:43;100518.03;;;11.71;89.46
4576;BME280;2300;51.874;8.430;2023-03-19T07:45:09;100511.69;;;11.70;89.30
4576;BME280;2300;51.874;8.430;2023-03-19T07:47:36;100518.28;;;11.69;88.82
4576;BME280;2300;51.874;8.430;2023-03-19T07:50:03;100505.59;;;11.56;88.70
4576;BME280;2300;51.874;8.430;2023-03-19T07:52:31;100516.75;;;11.50;89.32
4576;BME280;2300;51.874;8.430;2023-03-19T07:54:57;100518.41;;;11.51;88.76
4576;BME280;2300;51.874;8.430;2023-03-19T07:57:24;100516.38;;;11.46;88.16
4576;BME280;2300;51.874;8.430;2023-03-19T07:59:51;100524.28;;;11.54;87.82
4576;BME280;2300;51.874;8.430;2023-03-19T08:02:17;100529.41;;;11.51;87.49
4576;BME280;2300;51.874;8.430;2023-03-19T08:04:45;100522.47;;;11.60;87.77
4576;BME280;2300;51.874;8.430;2023-03-19T08:07:11;100528.22;;;11.70;87.36
4576;BME280;2300;51.874;8.430;2023-03-19T08:09:39;100523.66;;;11.76;87.36
4576;BME280;2300;51.874;8.430;2023-03-19T08:12:07;100537.34;;;11.87;86.71
4576;BME280;2300;51.874;8.430;2023-03-19T08:14:34;100537.56;;;12.26;86.31
4576;BME280;2300;51.874;8.430;2023-03-19T08:17:00;100532.75;;;12.33;85.75
4576;BME280;2300;51.874;8.430;2023-03-19T08:19:26;100543.06;;;13.04;84.01
4576;BME280;2300;51.874;8.430;2023-03-19T08:21:53;100543.72;;;14.42;80.88
4576;BME280;2300;51.874;8.430;2023-03-19T08:24:20;100541.66;;;15.23;76.35
4576;BME280;2300;51.874;8.430;2023-03-19T08:26:48;100533.47;;;15.01;75.20
4576;BME280;2300;51.874;8.430;2023-03-19T08:29:15;100536.63;;;14.83;74.31
4576;BME280;2300;51.874;8.430;2023-03-19T08:31:41;100552.84;;;15.06;75.22
4576;BME280;2300;51.874;8.430;2023-03-19T08:34:08;100541.88;;;14.52;75.68
4576;BME280;2300;51.874;8.430;2023-03-19T08:36:35;100540.00;;;14.58;77.17
4576;BME280;2300;51.874;8.430;2023-03-19T08:39:02;100542.00;;;14.36;76.55
4576;BME280;2300;51.874;8.430;2023-03-19T08:41:29;100536.34;;;13.99;76.14
4576;BME280;2300;51.874;8.430;2023-03-19T08:43:57;100534.97;;;13.58;75.73
4576;BME280;2300;51.874;8.430;2023-03-19T08:46:23;100537.06;;;13.67;77.07
4576;BME280;2300;51.874;8.430;2023-03-19T08:48:51;100549.13;;;13.83;76.48
4576;BME280;2300;51.874;8.430;2023-03-19T08:51:17;100545.50;;;14.26;75.35
4576;BME280;2300;51.874;8.430;2023-03-19T08:53:44;100540.28;;;14.03;74.89
4576;BME280;2300;51.874;8.430;2023-03-19T08:56:11;100547.47;;;14.57;75.11
4576;BME280;2300;51.874;8.430;2023-03-19T08:58:37;100530.50;;;14.76;74.62
4576;BME280;2300;51.874;8.430;2023-03-19T09:01:09;100538.25;;;15.11;72.99
4576;BME280;2300;51.874;8.430;2023-03-19T09:03:36;100539.34;;;15.52;71.50
4576;BME280;2300;51.874;8.430;2023-03-19T09:06:04;100543.88;;;15.78;71.53
4576;BME280;2300;51.874;8.430;2023-03-19T09:08:33;100533.75;;;16.04;69.29
4576;BME280;2300;51.874;8.430;2023-03-19T09:11:00;100553.25;;;16.34;69.24
4576;BME280;2300;51.874;8.430;2023-03-19T09:13:26;100546.75;;;16.03;67.54
4576;BME280;2300;51.874;8.430;2023-03-19T09:15:53;100542.88;;;15.99;69.87
4576;BME280;2300;51.874;8.430;2023-03-19T09:18:21;100548.84;;;15.76;68.08
4576;BME280;2300;51.874;8.430;2023-03-19T09:20:49;100554.44;;;15.91;70.05
4576;BME280;2300;51.874;8.430;2023-03-19T09:23:15;100555.84;;;15.88;69.83
4576;BME280;2300;51.874;8.430;2023-03-19T09:25:42;100558.72;;;15.57;71.49
4576;BME280;2300;51.874;8.430;2023-03-19T09:28:08;100563.47;;;15.19;71.36
4576;BME280;2300;51.874;8.430;2023-03-19T09:30:35;100570.63;;;15.15;72.55
4576;BME280;2300;51.874;8.430;2023-03-19T09:33:03;100564.81;;;14.80;71.86
4576;BME280;2300;51.874;8.430;2023-03-19T09:35:31;100565.94;;;14.84;72.20
4576;BME280;2300;51.874;8.430;2023-03-19T09:37:57;100566.88;;;15.31;72.84
4576;BME280;2300;51.874;8.430;2023-03-19T09:40:27;100568.59;;;15.89;71.17
4576;BME280;2300;51.874;8.430;2023-03-19T09:43:02;100575.38;;;15.67;70.37
4576;BME280;2300;51.874;8.430;2023-03-19T09:45:31;100552.53;;;15.91;70.71
4576;BME280;2300;51.874;8.430;2023-03-19T09:47:59;100554.53;;;16.01;69.07
4576;BME280;2300;51.874;8.430;2023-03-19T09:50:32;100554.81;;;16.05;69.58
4576;BME280;2300;51.874;8.430;2023-03-19T09:53:05;100559.78;;;16.08;69.70
4576;BME280;2300;51.874;8.430;2023-03-19T09:55:39;100565.03;;;16.04;69.82
4576;BME280;2300;51.874;8.430;2023-03-19T09:58:12;100567.41;;;15.75;69.79
4576;BME280;2300;51.874;8.430;2023-03-19T10:00:40;100552.84;;;15.43;70.06
4576;BME280;2300;51.874;8.430;2023-03-19T10:03:21;100557.50;;;15.32;71.59
4576;BME280;2300;51.874;8.430;2023-03-19T10:06:00;100569.69;;;15.88;71.94
4576;BME280;2300;51.874;8.430;2023-03-19T10:08:39;100556.16;;;16.02;70.43
4576;BME280;2300;51.874;8.430;2023-03-19T10:11:27;100567.78;;;15.99;71.45
4576;BME280;2300;51.874;8.430;2023-03-19T10:14:05;100567.88;;;16.09;71.59
4576;BME280;2300;51.874;8.430;2023-03-19T10:16:37;100558.81;;;16.44;70.64
4576;BME280;2300;51.874;8.430;2023-03-19T10:19:09;100548.59;;;16.75;68.58
4576;BME280;2300;51.874;8.430;2023-03-19T10:21:42;100562.97;;;17.48;69.38
4576;BME280;2300;51.874;8.430;2023-03-19T10:24:13;100558.06;;;17.04;67.65
4576;BME280;2300;51.874;8.430;2023-03-19T10:26:41;100559.03;;;16.27;68.75
4576;BME280;2300;51.874;8.430;2023-03-19T10:29:13;100569.44;;;15.95;70.44
4576;BME280;2300;51.874;8.430;2023-03-19T10:31:43;100557.75;;;15.83;71.31
4576;BME280;2300;51.874;8.430;2023-03-19T10:34:30;100555.63;;;15.43;72.78
4576;BME280;2300;51.874;8.430;2023-03-19T10:36:59;100571.56;;;15.78;71.98
4576;BME280;2300;51.874;8.430;2023-03-19T10:39:29;100572.38;;;15.68;72.26
4576;BME280;2300;51.874;8.430;2023-03-19T10:42:02;100569.81;;;15.57;72.15
4576;BME280;2300;51.874;8.430;2023-03-19T10:44:34;100574.75;;;15.55;72.17
4576;BME280;2300;51.874;8.430;2023-03-19T10:47:09;100580.69;;;15.73;71.21
4576;BME280;2300;51.874;8.430;2023-03-19T10:49:36;100585.66;;;16.33;71.37
4576;BME280;2300;51.874;8.430;2023-03-19T10:52:05;100592.09;;;16.64;69.47
4576;BME280;2300;51.874;8.430;2023-03-19T10:54:32;100590.69;;;16.42;69.16
4576;BME280;2300;51.874;8.430;2023-03-19T10:56:59;100578.97;;;16.19;69.50
4576;BME280;2300;51.874;8.430;2023-03-19T10:59:31;100566.00;;;15.68;70.01
4576;BME280;2300;51.874;8.430;2023-03-19T11:02:01;100590.00;;;15.57;71.32
4576;BME280;2300;51.874;8.430;2023-03-19T11:04:28;100587.75;;;15.49;71.56
4576;BME280;2300;51.874;8.430;2023-03-19T11:07:02;100603.59;;;15.59;72.14
4576;BME280;2300;51.874;8.430;2023-03-19T11:09:33;100604.72;;;15.63;72.38
4576;BME280;2300;51.874;8.430;2023-03-19T11:12:06;100566.78;;;15.58;71.49
4576;BME280;2300;51.874;8.430;2023-03-19T11:14:35;100599.44;;;16.13;70.57
4576;BME280;2300;51.874;8.430;2023-03-19T11:17:05;100595.78;;;16.03;70.45
4576;BME280;2300;51.874;8.430;2023-03-19T11:19:38;100598.22;;;15.94;69.59
4576;BME280;2300;51.874;8.430;2023-03-19T11:22:14;100603.38;;;15.75;69.67
4576;BME280;2300;51.874;8.430;2023-03-19T11:24:49;100600.00;;;15.63;70.68
4576;BME280;2300;51.874;8.430;2023-03-19T11:27:17;100602.50;;;15.60;70.41
4576;BME280;2300;51.874;8.430;2023-03-19T11:29:44;100598.66;;;15.71;71.06
4576;BME280;2300;51.874;8.430;2023-03-19T11:32:28;100603.06;;;15.67;71.91
4576;BME280;2300;51.874;8.430;2023-03-19T11:35:01;100601.88;;;16.05;72.45
4576;BME280;2300;51.874;8.430;2023-03-19T11:37:32;100603.13;;;16.34;70.68
4576;BME280;2300;51.874;8.430;2023-03-19T11:40:11;100603.50;;;16.93;69.75
4576;BME280;2300;51.874;8.430;2023-03-19T11:42:55;100599.63;;;17.35;67.70
4576;BME280;2300;51.874;8.430;2023-03-19T11:45:30;100575.22;;;17.27;65.81
4576;BME280;2300;51.874;8.430;2023-03-19T11:48:08;100586.88;;;17.18;66.72
4576;BME280;2300;51.874;8.430;2023-03-19T11:50:39;100583.00;;;16.99;67.47
4576;BME280;2300;51.874;8.430;2023-03-19T11:53:18;100587.44;;;17.05;67.25
4576;BME280;2300;51.874;8.430;2023-03-19T11:55:53;100576.03;;;16.71;67.54
4576;BME280;2300;51.874;8.430;2023-03-19T11:58:43;100596.53;;;16.70;68.09
4576;BME280;2300;51.874;8.430;2023-03-19T12:01:22;100594.03;;;16.59;68.70
4576;BME280;2300;51.874;8.430;2023-03-19T12:04:00;100589.25;;;16.34;68.90
4576;BME280;2300;51.874;8.430;2023-03-19T12:06:39;100590.09;;;16.29;69.44
4576;BME280;2300;51.874;8.430;2023-03-19T12:09:17;100597.31;;;16.41;69.20
4576;BME280;2300;51.874;8.430;2023-03-19T12:11:51;100601.41;;;16.23;70.03
4576;BME280;2300;51.874;8.430;2023-03-19T12:14:24;100589.84;;;16.36;71.22
4576;BME280;2300;51.874;8.430;2023-03-19T12:17:02;100592.91;;;16.55;70.07
4576;BME280;2300;51.874;8.430;2023-03-19T12:19:45;100591.25;;;16.64;69.39
4576;BME280;2300;51.874;8.430;2023-03-19T12:22:22;100588.22;;;16.55;69.93
4576;BME280;2300;51.874;8.430;2023-03-19T12:25:02;100596.19;;;16.26;69.32
4576;BME280;2300;51.874;8.430;2023-03-19T12:27:39;100588.84;;;16.00;70.89
4576;BME280;2300;51.874;8.430;2023-03-19T12:30:17;100591.91;;;16.09;71.25
4576;BME280;2300;51.874;8.430;2023-03-19T12:33:02;100602.28;;;16.39;72.75
4576;BME280;2300;51.874;8.430;2023-03-19T12:35:34;100606.28;;;16.83;71.71
4576;BME280;2300;51.874;8.430;2023-03-19T12:38:04;100584.66;;;17.10;68.96
4576;BME280;2300;51.874;8.430;2023-03-19T12:40:37;100584.34;;;16.76;69.86
4576;BME280;2300;51.874;8.430;2023-03-19T12:43:16;100584.59;;;16.60;69.72
4576;BME280;2300;51.874;8.430;2023-03-19T12:45:45;100590.34;;;16.28;71.04
4576;BME280;2300;51.874;8.430;2023-03-19T12:48:16;100580.59;;;16.10;69.96
4576;BME280;2300;51.874;8.430;2023-03-19T12:50:51;100582.53;;;16.10;70.46
4576;BME280;2300;51.874;8.430;2023-03-19T12:53:29;100580.78;;;15.93;69.84
4576;BME280;2300;51.874;8.430;2023-03-19T12:56:03;100580.59;;;16.10;70.37
4576;BME280;2300;51.874;8.430;2023-03-19T12:58:38;100581.06;;;15.97;71.21
4576;BME280;2300;51.874;8.430;2023-03-19T13:01:11;100581.56;;;15.84;71.70
4576;BME280;2300;51.874;8.430;2023-03-19T13:03:45;100557.19;;;15.86;71.03
4576;BME280;2300;51.874;8.430;2023-03-19T13:06:18;100576.81;;;15.74;71.90
4576;BME280;2300;51.874;8.430;2023-03-19T13:08:48;100571.00;;;15.76;71.95
4576;BME280;2300;51.874;8.430;2023-03-19T13:11:22;100567.00;;;15.52;72.95
4576;BME280;2300;51.874;8.430;2023-03-19T13:13:53;100587.69;;;15.91;73.04
4576;BME280;2300;51.874;8.430;2023-03-19T13:16:38;100585.22;;;15.95;72.66
4576;BME280;2300;51.874;8.430;2023-03-19T13:19:15;100577.31;;;16.28;71.69
4576;BME280;2300;51.874;8.430;2023-03-19T13:21:44;100564.03;;;16.20;70.66